Time;durP1;ratioP1;P1;durP2;ratioP2;P2;SDS_P1;SDS_P2;PMS_P1;PMS_P2;Temp;Humidity;BMP_temperature;BMP_pressure;BME280_temperature;BME280_humidity;BME280_pressure;Samples;Min_cycle;Max_cycle;Signal;HPM_P1;HPM_P2
2023/09/11 00:02:07;;;;;;;;;;;;;;;23.30;100.00;101344.84;5017806;28;20057;-67
2023/09/11 00:04:34;;;;;;;27.42;22.33;;;;;;;23.25;100.00;101339.34;5013843;28;19927;-68
2023/09/11 00:07:01;;;;;;;24.77;21.63;;;;;;;23.21;100.00;101335.47;5019601;28;20068;-68
2023/09/11 00:09:28;;;;;;;25.40;22.00;;;;;;;23.21;100.00;101327.44;5019031;28;20041;-68
2023/09/11 00:11:54;;;;;;;28.08;20.80;;;;;;;23.21;100.00;101330.13;5012965;28;20132;-68
2023/09/11 00:14:21;;;;;;;24.42;20.75;;;;;;;23.18;100.00;101325.19;5014607;28;20170;-68
2023/09/11 00:16:47;;;;;;;26.30;22.27;;;;;;;23.14;100.00;101323.19;5013988;28;20383;-67
2023/09/11 00:19:14;;;;;;;26.35;22.13;;;;;;;23.09;100.00;101319.28;5021878;28;20049;-68
2023/09/11 00:21:40;;;;;;;29.45;22.15;;;;;;;23.13;100.00;101324.19;5014129;28;20059;-68
2023/09/11 00:24:06;;;;;;;23.50;20.35;;;;;;;23.17;100.00;101325.41;5027026;28;20085;-66
2023/09/11 00:26:33;;;;;;;25.55;22.60;;;;;;;23.12;100.00;101326.06;5022131;28;20049;-67
2023/09/11 00:29:00;;;;;;;24.42;21.67;;;;;;;23.05;100.00;101330.63;5013443;28;20465;-67
2023/09/11 00:31:26;;;;;;;26.33;22.05;;;;;;;22.99;100.00;101324.28;5025950;28;20056;-67
2023/09/11 00:33:53;;;;;;;28.05;22.35;;;;;;;22.94;100.00;101324.09;5018946;28;20127;-67
2023/09/11 00:36:19;;;;;;;26.30;22.10;;;;;;;22.90;100.00;101318.38;5024876;28;20049;-67
2023/09/11 00:38:47;;;;;;;23.45;20.92;;;;;;;22.88;100.00;101320.44;5021145;28;20136;-68
2023/09/11 00:41:14;;;;;;;24.65;19.88;;;;;;;22.86;100.00;101317.16;5020654;28;20045;-68
2023/09/11 00:43:40;;;;;;;22.50;19.90;;;;;;;22.87;100.00;101312.63;5018163;28;20060;-67
2023/09/11 00:46:07;;;;;;;22.13;19.73;;;;;;;22.87;100.00;101312.63;5015783;28;20084;-68
2023/09/11 00:48:34;;;;;;;26.65;20.75;;;;;;;22.84;100.00;101305.84;5024264;28;20456;-67
2023/09/11 00:51:01;;;;;;;23.25;19.63;;;;;;;22.87;100.00;101313.47;5018080;28;20306;-67
2023/09/11 00:53:27;;;;;;;23.42;20.40;;;;;;;22.88;100.00;101312.41;5024436;28;20663;-67
2023/09/11 00:55:54;;;;;;;26.17;20.45;;;;;;;22.88;100.00;101312.41;5016432;28;20060;-67
2023/09/11 00:58:23;;;;;;;24.85;20.63;;;;;;;22.85;100.00;101306.66;5015991;28;20123;-67
2023/09/11 01:00:50;;;;;;;24.05;20.98;;;;;;;22.84;100.00;101307.72;5023101;28;20053;-68
2023/09/11 01:03:16;;;;;;;21.80;19.52;;;;;;;22.80;100.00;101307.31;5016712;28;20076;-67
2023/09/11 01:05:44;;;;;;;22.38;19.75;;;;;;;22.78;100.00;101295.22;5022458;28;20143;-67
2023/09/11 01:08:10;;;;;;;23.85;21.13;;;;;;;22.70;100.00;101294.44;5011286;28;20061;-67
2023/09/11 01:10:37;;;;;;;25.08;19.70;;;;;;;22.69;100.00;101300.00;5016777;28;20049;-68
2023/09/11 01:13:04;;;;;;;22.38;20.05;;;;;;;22.70;100.00;101291.75;5021586;28;20479;-67
2023/09/11 01:15:42;;;;;;;22.17;19.77;;;;;;;22.69;100.00;101290.09;5016126;28;20060;-67
2023/09/11 01:18:19;;;;;;;25.67;20.45;;;;;;;22.68;100.00;101288.47;5023592;28;20614;-67
2023/09/11 01:21:12;;;;;;;22.50;19.50;;;;;;;22.66;100.00;101281.72;5015350;28;21336;-67
2023/09/11 01:23:57;;;;;;;24.08;20.70;;;;;;;22.65;100.00;101280.06;5019036;28;20049;-67
2023/09/11 01:26:47;;;;;;;23.75;20.08;;;;;;;22.62;100.00;101285.84;5020226;28;20045;-67
2023/09/11 01:29:23;;;;;;;26.77;20.48;;;;;;;22.57;100.00;101289.16;5024895;28;20045;-67
2023/09/11 01:31:52;;;;;;;25.27;20.13;;;;;;;22.55;100.00;101287.75;5018221;28;20057;-67
2023/09/11 01:34:18;;;;;;;23.65;19.58;;;;;;;22.51;100.00;101290.84;5024231;28;20127;-67
2023/09/11 01:36:45;;;;;;;23.25;20.75;;;;;;;22.45;100.00;101283.69;5020730;28;20049;-68
2023/09/11 01:39:12;;;;;;;27.35;21.63;;;;;;;22.40;100.00;101282.66;5017271;28;20045;-67
2023/09/11 01:41:46;;;;;;;30.05;20.80;;;;;;;22.39;100.00;101281.06;5025662;28;20663;-67
2023/09/11 01:44:18;;;;;;;29.58;21.85;;;;;;;22.37;100.00;101283.13;5011878;28;20418;-67
2023/09/11 01:46:47;;;;;;;26.92;21.00;;;;;;;22.37;100.00;101289.28;5022457;28;20045;-67
2023/09/11 01:49:15;;;;;;;28.00;20.83;;;;;;;22.39;100.00;101287.22;5019411;28;20045;-67
2023/09/11 01:51:42;;;;;;;25.65;20.70;;;;;;;22.35;100.00;101280.66;5020595;28;20054;-68
2023/09/11 01:54:09;;;;;;;26.17;21.98;;;;;;;22.29;100.00;101285.00;5019528;28;20092;-67
2023/09/11 01:56:35;;;;;;;27.63;21.08;;;;;;;22.24;100.00;101281.28;5017337;28;20064;-68
2023/09/11 01:59:02;;;;;;;25.45;22.77;;;;;;;22.24;100.00;101283.94;5026779;28;20728;-67
2023/09/11 02:01:28;;;;;;;29.10;22.00;;;;;;;22.22;100.00;101281.50;5020751;28;20502;-67
2023/09/11 02:03:55;;;;;;;26.67;23.00;;;;;;;22.22;100.00;101278.81;5017825;28;20054;-67
2023/09/11 02:06:21;;;;;;;30.70;22.48;;;;;;;22.21;100.00;101277.19;5005902;28;20056;-67
2023/09/11 02:08:48;;;;;;;27.52;22.27;;;;;;;22.19;100.00;101278.41;5021001;28;20062;-68
2023/09/11 02:11:14;;;;;;;30.17;21.90;;;;;;;22.17;100.00;101281.31;5019194;28;20076;-67
2023/09/11 02:13:41;;;;;;;25.30;22.58;;;;;;;22.11;100.00;101288.34;5018734;28;20480;-67
2023/09/11 02:16:07;;;;;;;36.28;22.70;;;;;;;22.11;100.00;101277.66;5026053;28;20423;-67
2023/09/11 02:18:34;;;;;;;29.10;22.67;;;;;;;22.11;100.00;101268.81;5015025;28;20053;-67
2023/09/11 02:21:00;;;;;;;23.95;21.42;;;;;;;22.09;100.00;101269.03;5019644;28;20052;-67
2023/09/11 02:23:27;;;;;;;30.98;23.05;;;;;;;22.13;100.00;101269.44;5006652;28;20547;-67
2023/09/11 02:25:53;;;;;;;26.70;23.17;;;;;;;22.13;100.00;101266.75;5011407;28;20128;-68
2023/09/11 02:28:20;;;;;;;33.35;22.05;;;;;;;22.15;100.00;101262.03;5019239;28;20096;-67
2023/09/11 02:30:46;;;;;;;31.08;22.58;;;;;;;22.15;100.00;101263.84;5016002;28;20049;-67
2023/09/11 02:33:13;;;;;;;27.10;22.08;;;;;;;22.11;100.00;101261.63;5018878;28;20057;-68
2023/09/11 02:35:39;;;;;;;31.05;22.83;;;;;;;22.11;100.00;101263.47;5016896;28;20141;-67
2023/09/11 02:38:06;;;;;;;26.05;23.27;;;;;;;22.08;100.00;101262.03;5025551;28;20560;-67
2023/09/11 02:40:36;;;;;;;28.20;22.88;;;;;;;22.07;100.00;101257.72;5020986;28;20041;-68
2023/09/11 02:43:03;;;;;;;28.98;24.42;;;;;;;22.04;100.00;101252.81;5024616;28;20497;-68
2023/09/11 02:45:30;;;;;;;31.08;25.27;;;;;;;21.99;100.00;101263.28;5020250;28;20081;-67
2023/09/11 02:47:56;;;;;;;31.63;24.90;;;;;;;22.01;100.00;101255.06;4996387;28;20060;-68
2023/09/11 02:50:23;;;;;;;29.33;25.35;;;;;;;21.99;100.00;101255.28;5027238;28;20418;-67
2023/09/11 02:52:49;;;;;;;27.65;24.60;;;;;;;21.96;100.00;101255.72;5014976;28;20749;-67
2023/09/11 02:55:16;;;;;;;32.03;25.75;;;;;;;21.91;100.00;101251.03;5014826;28;20132;-67
2023/09/11 02:57:42;;;;;;;31.75;21.77;;;;;;;21.92;100.00;101249.16;5026772;28;20049;-68
2023/09/11 03:00:09;;;;;;;28.17;24.70;;;;;;;21.89;100.00;101252.25;5010789;28;20553;-68
2023/09/11 03:02:36;;;;;;;26.80;23.75;;;;;;;21.85;100.00;101246.50;5013469;28;20052;-65
2023/09/11 03:05:03;;;;;;;34.65;24.48;;;;;;;21.85;100.00;101251.84;5011588;28;20111;-67
2023/09/11 03:07:30;;;;;;;31.30;25.27;;;;;;;21.84;100.00;101244.06;5015401;28;20060;-68
2023/09/11 03:09:56;;;;;;;30.23;23.63;;;;;;;21.84;100.00;101242.19;5017316;28;20275;-67
2023/09/11 03:12:22;;;;;;;26.10;23.20;;;;;;;21.83;100.00;101242.41;5026381;28;20053;-67
2023/09/11 03:14:52;;;;;;;31.23;23.77;;;;;;;21.77;100.00;101232.56;5016911;28;20407;-67
2023/09/11 03:17:18;;;;;;;32.47;23.55;;;;;;;21.76;100.00;101237.09;5022219;28;20144;-66
2023/09/11 03:19:45;;;;;;;26.58;22.33;;;;;;;21.77;100.00;101235.25;5024810;28;20141;-67
2023/09/11 03:22:11;;;;;;;32.45;24.08;;;;;;;21.75;100.00;101229.28;5018998;28;20057;-67
2023/09/11 03:24:38;;;;;;;28.45;23.35;;;;;;;21.69;100.00;101234.44;5025382;28;20492;-67
2023/09/11 03:27:04;;;;;;;27.88;23.15;;;;;;;21.68;100.00;101226.66;5015530;28;20188;-67
2023/09/11 03:29:31;;;;;;;28.40;23.42;;;;;;;21.65;100.00;101227.88;5017420;28;20132;-67
2023/09/11 03:31:57;;;;;;;29.67;23.63;;;;;;;21.60;100.00;101230.38;5020219;28;20654;-67
2023/09/11 03:34:24;;;;;;;30.40;23.98;;;;;;;21.58;100.00;101220.91;5020966;28;20589;-67
2023/09/11 03:36:50;;;;;;;32.10;24.20;;;;;;;21.55;100.00;101232.03;5023395;28;20053;-66
2023/09/11 03:39:17;;;;;;;29.45;23.48;;;;;;;21.53;100.00;101226.88;5018135;28;20132;-66
2023/09/11 03:41:43;;;;;;;27.65;23.35;;;;;;;21.51;100.00;101221.75;5021182;28;20140;-66
2023/09/11 03:44:10;;;;;;;31.42;24.85;;;;;;;21.50;100.00;101221.97;5012321;28;20046;-66
2023/09/11 03:46:36;;;;;;;31.75;25.85;;;;;;;21.48;100.00;101210.66;5013533;28;20144;-67
2023/09/11 03:49:03;;;;;;;30.88;25.65;;;;;;;21.42;100.00;101204.28;5024160;28;20065;-66
2023/09/11 03:51:29;;;;;;;28.92;25.40;;;;;;;21.44;100.00;101210.25;5015095;28;20137;-67
2023/09/11 03:53:58;;;;;;;30.45;25.23;;;;;;;21.43;100.00;101199.78;5022302;28;20136;-67
2023/09/11 03:56:24;;;;;;;31.08;24.80;;;;;;;21.41;100.00;101202.66;5000093;28;20061;-67
2023/09/11 03:58:51;;;;;;;27.98;24.30;;;;;;;21.40;100.00;101194.88;5004906;28;20049;-66
2023/09/11 04:01:17;;;;;;;30.90;24.83;;;;;;;21.37;100.00;101198.78;5014183;28;20056;-66
2023/09/11 04:03:44;;;;;;;32.60;24.67;;;;;;;21.33;100.00;101197.56;5013577;28;20068;-67
2023/09/11 04:06:11;;;;;;;34.15;25.00;;;;;;;21.33;100.00;101205.56;5011396;28;20046;-67
2023/09/11 04:08:37;;;;;;;30.08;25.90;;;;;;;21.30;100.00;101192.63;5012363;28;20107;-66
2023/09/11 04:11:04;;;;;;;27.63;24.67;;;;;;;21.29;100.00;101201.66;5014914;28;20041;-67
2023/09/11 04:13:30;;;;;;;28.35;25.40;;;;;;;21.26;100.00;101196.75;5012112;28;20042;-66
2023/09/11 04:15:59;;;;;;;27.73;23.42;;;;;;;21.27;100.00;101195.72;5010554;28;20080;-67
2023/09/11 04:18:26;;;;;;;31.15;24.38;;;;;;;21.25;100.00;101190.59;5003617;28;20045;-67
2023/09/11 04:21:00;;;;;;;33.75;24.45;;;;;;;21.26;100.00;101188.75;5024962;28;20047;-67
2023/09/11 04:23:26;;;;;;;28.75;24.92;;;;;;;21.20;100.00;101187.72;5025518;28;20049;-67
2023/09/11 04:25:54;;;;;;;30.60;25.08;;;;;;;21.21;100.00;101188.53;5017876;28;20053;-67
2023/09/11 04:28:21;;;;;;;35.78;28.33;;;;;;;21.14;100.00;101192.03;5029326;28;20076;-67
2023/09/11 04:30:47;;;;;;;37.13;31.27;;;;;;;21.12;100.00;101186.09;5021921;28;20038;-67
2023/09/11 04:33:16;;;;;;;40.13;28.48;;;;;;;21.13;100.00;101181.59;5028583;28;20049;-67
2023/09/11 04:35:43;;;;;;;30.05;26.70;;;;;;;21.10;100.00;101190.00;5019247;28;20148;-66
2023/09/11 04:38:09;;;;;;;31.52;26.13;;;;;;;21.09;100.00;101185.66;5023842;28;20053;-67
2023/09/11 04:40:36;;;;;;;31.42;25.75;;;;;;;21.07;100.00;101183.25;5019506;28;20456;-67
2023/09/11 04:43:02;;;;;;;32.28;25.75;;;;;;;21.06;100.00;101175.44;5024299;28;20152;-67
2023/09/11 04:45:29;;;;;;;31.35;26.38;;;;;;;21.05;100.00;101176.44;5028487;28;20057;-67
2023/09/11 04:47:55;;;;;;;29.75;24.85;;;;;;;21.05;100.00;101177.28;5022812;28;20054;-67
2023/09/11 04:50:22;;;;;;;30.02;24.63;;;;;;;21.04;100.00;101174.81;5034978;28;20131;-67
2023/09/11 04:52:48;;;;;;;29.70;24.90;;;;;;;21.03;100.00;101175.84;5016600;28;20521;-67
2023/09/11 04:55:15;;;;;;;27.00;23.73;;;;;;;21.02;100.00;101175.03;5022030;28;20053;-67
2023/09/11 04:57:41;;;;;;;30.45;24.23;;;;;;;20.98;100.00;101167.66;5029210;28;20049;-67
2023/09/11 05:00:13;;;;;;;30.00;24.90;;;;;;;20.96;100.00;101167.03;5020869;28;20053;-67
2023/09/11 05:02:40;;;;;;;33.47;25.55;;;;;;;20.97;100.00;101166.81;5028814;28;20132;-67
2023/09/11 05:05:07;;;;;;;33.83;26.35;;;;;;;20.97;100.00;101172.16;5008695;28;20550;-67
2023/09/11 05:07:33;;;;;;;32.70;25.83;;;;;;;20.98;100.00;101170.31;5008121;28;20049;-69
2023/09/11 05:10:01;;;;;;;31.38;25.73;;;;;;;20.99;100.00;101171.94;5006622;28;20491;-67
2023/09/11 05:12:27;;;;;;;29.05;23.65;;;;;;;20.99;100.00;101171.94;5019624;28;20042;-67
2023/09/11 05:14:54;;;;;;;28.25;25.30;;;;;;;21.00;100.00;101174.41;5014059;28;20063;-67
2023/09/11 05:17:20;;;;;;;29.55;24.77;;;;;;;21.00;100.00;101184.28;5019036;28;20056;-67
2023/09/11 05:19:47;;;;;;;29.73;26.08;;;;;;;20.95;100.00;101182.19;5020607;28;20108;-67
2023/09/11 05:22:13;;;;;;;31.75;25.30;;;;;;;20.93;100.00;101174.44;5007708;28;20054;-67
2023/09/11 05:24:39;;;;;;;29.40;25.75;;;;;;;20.90;100.00;101179.34;5017127;28;20156;-68
2023/09/11 05:27:06;;;;;;;29.27;23.90;;;;;;;20.90;100.00;101180.16;5008017;28;20057;-68
2023/09/11 05:29:33;;;;;;;28.65;25.50;;;;;;;20.85;100.00;101185.28;5019890;28;20053;-67
2023/09/11 05:31:59;;;;;;;30.98;25.13;;;;;;;20.84;100.00;101185.50;5019463;28;20058;-68
2023/09/11 05:34:26;;;;;;;31.75;25.67;;;;;;;20.86;100.00;101186.13;5012382;28;20050;-68
2023/09/11 05:36:52;;;;;;;32.20;26.77;;;;;;;20.84;100.00;101180.19;5014634;28;20050;-67
2023/09/11 05:39:19;;;;;;;33.03;25.95;;;;;;;20.83;100.00;101181.19;5016491;28;20092;-67
2023/09/11 05:41:45;;;;;;;36.33;28.77;;;;;;;20.85;100.00;101176.47;5019093;28;20061;-67
2023/09/11 05:44:12;;;;;;;33.72;28.90;;;;;;;20.86;100.00;101192.28;5021183;28;20061;-67
2023/09/11 05:46:38;;;;;;;37.40;26.88;;;;;;;20.88;100.00;101187.53;5019635;28;20077;-67
2023/09/11 05:49:05;;;;;;;34.42;28.13;;;;;;;20.90;100.00;101182.84;5021494;28;20049;-67
2023/09/11 05:51:31;;;;;;;32.58;26.42;;;;;;;20.93;100.00;101187.75;5028810;28;20073;-67
2023/09/11 05:53:58;;;;;;;33.97;26.10;;;;;;;20.98;100.00;101191.66;5026797;28;20052;-67
2023/09/11 05:56:24;;;;;;;32.78;26.08;;;;;;;21.00;100.00;101178.94;5021683;28;20057;-67
2023/09/11 05:58:51;;;;;;;32.80;26.88;;;;;;;21.03;100.00;101182.00;5008444;28;20056;-67
2023/09/11 06:01:17;;;;;;;32.33;26.40;;;;;;;21.04;100.00;101190.81;5016264;28;20099;-67
2023/09/11 06:03:44;;;;;;;33.95;27.23;;;;;;;21.04;100.00;101188.16;5036723;28;20045;-67
2023/09/11 06:06:11;;;;;;;36.95;27.50;;;;;;;21.07;100.00;101196.56;5044608;28;20045;-68
2023/09/11 06:08:37;;;;;;;28.42;25.35;;;;;;;21.11;100.00;101191.63;5025339;28;20049;-68
2023/09/11 06:11:04;;;;;;;30.55;27.20;;;;;;;21.11;100.00;101197.78;5011484;28;20120;-67
2023/09/11 06:13:33;;;;;;;30.38;25.83;;;;;;;21.12;100.00;101188.75;5010318;28;20050;-68
2023/09/11 06:15:59;;;;;;;35.47;27.50;;;;;;;21.15;100.00;101192.88;5028737;28;20049;-68
2023/09/11 06:18:25;;;;;;;38.75;25.95;;;;;;;21.18;100.00;101187.09;5019598;28;20518;-68
2023/09/11 06:20:52;;;;;;;34.03;26.30;;;;;;;21.20;100.00;101192.25;5017842;28;20052;-68
2023/09/11 06:23:19;;;;;;;33.25;26.48;;;;;;;21.24;100.00;101191.59;5020767;28;20056;-67
2023/09/11 06:25:45;;;;;;;37.97;26.10;;;;;;;21.27;100.00;101196.53;5008692;28;20097;-67
2023/09/11 06:28:12;;;;;;;31.77;25.73;;;;;;;21.34;100.00;101188.50;5014118;28;20067;-67
2023/09/11 06:30:39;;;;;;;32.90;25.23;;;;;;;21.40;100.00;101187.66;5021009;28;20045;-67
2023/09/11 06:33:05;;;;;;;35.63;26.30;;;;;;;21.48;100.00;101192.00;5012868;28;20053;-67
2023/09/11 06:35:32;;;;;;;25.80;21.80;;;;;;;21.53;100.00;101190.34;5009588;28;20671;-67
2023/09/11 06:37:58;;;;;;;28.20;24.25;;;;;;;21.58;100.00;101187.06;5016905;28;20546;-67
2023/09/11 06:40:25;;;;;;;35.33;25.80;;;;;;;21.64;100.00;101194.22;5014847;28;20076;-67
2023/09/11 06:42:51;;;;;;;28.65;24.92;;;;;;;21.67;100.00;101193.78;5011645;28;20053;-67
2023/09/11 06:45:17;;;;;;;27.77;24.10;;;;;;;21.72;100.00;101202.00;5025987;28;20080;-67
2023/09/11 06:47:44;;;;;;;27.25;22.50;;;;;;;21.78;100.00;101192.31;5020195;28;20053;-67
2023/09/11 06:50:11;;;;;;;24.38;19.23;;;;;;;21.85;100.00;101195.75;5035139;28;20088;-67
2023/09/11 06:52:39;;;;;;;25.33;19.25;;;;;;;21.94;100.00;101201.69;5003605;28;20478;-67
2023/09/11 06:55:07;;;;;;;28.73;20.83;;;;;;;21.99;100.00;101199.19;5012305;28;20136;-67
2023/09/11 06:57:34;;;;;;;26.92;18.60;;;;;;;22.04;100.00;101196.72;5017092;28;20057;-67
2023/09/11 07:00:02;;;;;;;24.83;19.38;;;;;;;22.14;100.00;101204.25;5015999;28;20045;-67
2023/09/11 07:02:28;;;;;;;26.15;19.88;;;;;;;22.18;100.00;101199.31;5022388;28;20524;-67
2023/09/11 07:04:56;;;;;;;23.23;18.83;;;;;;;22.21;100.00;101198.88;5016296;28;20134;-67
2023/09/11 07:07:22;;;;;;;22.73;18.15;;;;;;;22.24;100.00;101199.28;5005981;28;20399;-67
2023/09/11 07:09:50;;;;;;;25.70;18.08;;;;;;;22.27;100.00;101195.41;5002205;28;20045;-67
2023/09/11 07:12:20;;;;;;;20.42;15.63;;;;;;;22.37;100.00;101194.94;5016848;28;20038;-67
2023/09/11 07:14:49;;;;;;;24.13;17.60;;;;;;;22.42;100.00;101195.88;5020179;28;20103;-67
2023/09/11 07:17:15;;;;;;;22.83;16.25;;;;;;;22.48;100.00;101197.72;5002676;28;20054;-67
2023/09/11 07:19:41;;;;;;;22.98;15.98;;;;;;;22.51;100.00;101197.28;5014982;28;20136;-68
2023/09/11 07:22:08;;;;;;;17.30;13.82;;;;;;;22.59;100.00;101198.88;5009849;28;20089;-67
2023/09/11 07:24:34;;;;;;;22.45;13.60;;;;;;;22.64;100.00;101190.19;5017821;28;20053;-67
2023/09/11 07:27:01;;;;;;;19.13;12.88;;;;;;;22.68;100.00;101189.56;5013859;28;20120;-67
2023/09/11 07:29:27;;;;;;;20.65;13.40;;;;;;;22.71;100.00;101189.09;5021523;28;20050;-67
2023/09/11 07:31:54;;;;;;;18.52;13.20;;;;;;;22.79;100.00;101192.53;5022404;28;20059;-63
2023/09/11 07:34:20;;;;;;;21.85;13.85;;;;;;;22.80;100.00;101191.53;5013971;28;20137;-67
2023/09/11 07:36:47;;;;;;;22.75;13.23;;;;;;;22.87;100.00;101194.94;5017361;28;20534;-67
2023/09/11 07:39:14;;;;;;;18.67;13.68;;;;;;;22.92;100.00;101203.13;5011319;28;20076;-67
2023/09/11 07:41:40;;;;;;;21.80;14.55;;;;;;;22.97;100.00;101192.56;5022355;28;20045;-67
2023/09/11 07:44:07;;;;;;;20.98;12.20;;;;;;;23.04;100.00;101190.69;5016960;28;20922;-67
2023/09/11 07:46:33;;;;;;;21.67;12.77;;;;;;;23.14;100.00;101192.06;5021630;28;20493;-67
2023/09/11 07:49:00;;;;;;;19.70;13.75;;;;;;;23.18;100.00;101186.03;5018547;28;20056;-67
2023/09/11 07:51:26;;;;;;;18.08;13.15;;;;;;;23.24;100.00;101195.03;5010702;28;20506;-67
2023/09/11 07:53:53;;;;;;;19.92;13.88;;;;;;;23.28;100.00;101186.34;5021545;28;20188;-67
2023/09/11 07:56:19;;;;;;;22.80;12.88;;;;;;;23.29;100.00;101196.03;5015078;28;20439;-67
2023/09/11 07:58:50;;;;;;;17.65;11.98;;;;;;;23.36;100.00;101205.84;5022982;28;20053;-67
2023/09/11 08:01:18;;;;;;;19.42;13.48;;;;;;;23.41;100.00;101203.31;5015868;28;20053;-67
2023/09/11 08:03:45;;;;;;;17.15;13.77;;;;;;;23.45;100.00;101208.00;5017523;28;20144;-67
2023/09/11 08:06:12;;;;;;;23.48;14.63;;;;;;;23.47;100.00;101208.59;5017086;28;20069;-66
2023/09/11 08:08:39;;;;;;;24.77;16.10;;;;;;;23.50;100.00;101215.34;5016857;28;20045;-66
2023/09/11 08:11:15;;;;;;;19.63;15.13;;;;;;;23.49;100.00;101208.38;5020798;28;20057;-67
2023/09/11 08:13:43;;;;;;;19.02;13.98;;;;;;;23.57;100.00;101212.63;5015280;28;20054;-66
2023/09/11 08:16:09;;;;;;;21.53;15.10;;;;;;;23.61;100.00;101213.81;5020002;28;20077;-67
2023/09/11 08:18:36;;;;;;;24.25;16.13;;;;;;;23.60;100.00;101209.47;5008083;28;20152;-67
2023/09/11 08:21:04;;;;;;;23.13;15.60;;;;;;;23.61;100.00;101209.25;5020511;28;20528;-67
2023/09/11 08:23:30;;;;;;;19.35;15.63;;;;;;;23.67;100.00;101211.03;5024310;28;20056;-66
2023/09/11 08:25:58;;;;;;;23.60;15.98;;;;;;;23.71;100.00;101200.69;5014142;28;20049;-67
2023/09/11 08:28:25;;;;;;;24.40;16.65;;;;;;;23.80;100.00;101204.75;5021445;28;20111;-67
2023/09/11 08:30:51;;;;;;;23.92;15.27;;;;;;;23.92;100.00;101201.31;5010737;28;20056;-66
2023/09/11 08:33:18;;;;;;;21.15;15.27;;;;;;;24.03;100.00;101206.72;5015788;28;20049;-67
2023/09/11 08:35:47;;;;;;;21.63;15.15;;;;;;;24.16;100.00;101210.25;5015575;28;20053;-66
2023/09/11 08:38:14;;;;;;;23.25;15.57;;;;;;;24.27;100.00;101215.66;5020903;28;20057;-68
2023/09/11 08:40:42;;;;;;;17.65;13.20;;;;;;;24.47;100.00;101209.19;5020157;28;20053;-67
2023/09/11 08:43:08;;;;;;;25.05;16.10;;;;;;;24.57;99.74;101212.16;5015942;28;20045;-68
2023/09/11 08:45:36;;;;;;;21.60;14.48;;;;;;;24.66;100.00;101216.16;5017826;28;20050;-67
2023/09/11 08:48:10;;;;;;;21.38;14.20;;;;;;;24.72;98.92;101225.13;5012692;28;20425;-68
2023/09/11 08:50:53;;;;;;;18.08;12.35;;;;;;;24.97;100.00;101221.41;5024697;28;20181;-67
2023/09/11 08:53:22;;;;;;;21.70;15.80;;;;;;;25.09;100.00;101211.53;5017014;28;20045;-67
2023/09/11 08:55:49;;;;;;;20.63;13.35;;;;;;;25.27;99.35;101215.97;5024326;28;20807;-67
2023/09/11 08:58:20;;;;;;;25.08;15.20;;;;;;;25.40;98.93;101212.22;5021644;28;20091;-67
2023/09/11 09:00:47;;;;;;;21.15;16.05;;;;;;;25.39;95.00;101222.16;5015356;28;20481;-67
2023/09/11 09:03:16;;;;;;;24.10;16.13;;;;;;;25.40;93.84;101215.75;5024357;28;20262;-66
2023/09/11 09:05:43;;;;;;;19.23;15.20;;;;;;;25.43;95.65;101207.19;5017424;28;20059;-67
2023/09/11 09:08:12;;;;;;;21.90;15.40;;;;;;;25.50;94.16;101204.41;5024124;28;20056;-66
2023/09/11 09:10:40;;;;;;;23.15;17.15;;;;;;;25.56;92.00;101208.81;5018337;28;20053;-66
2023/09/11 09:13:06;;;;;;;24.00;17.05;;;;;;;25.55;91.15;101212.53;5018093;28;20513;-66
2023/09/11 09:15:35;;;;;;;22.65;15.75;;;;;;;25.72;93.38;101214.47;5018604;28;20441;-66
2023/09/11 09:18:02;;;;;;;27.27;17.30;;;;;;;25.78;89.99;101216.25;5011861;28;20049;-67
2023/09/11 09:20:32;;;;;;;23.90;16.48;;;;;;;25.97;90.84;101220.41;5024258;28;20045;-67
2023/09/11 09:23:00;;;;;;;23.98;16.52;;;;;;;26.17;90.43;101221.84;5015904;28;20053;-68
2023/09/11 09:25:29;;;;;;;24.23;16.85;;;;;;;26.12;89.31;101221.75;5022329;28;20084;-68
2023/09/11 09:27:56;;;;;;;31.42;16.13;;;;;;;26.28;90.94;101225.53;5008814;28;20484;-68
2023/09/11 09:30:31;;;;;;;19.25;17.00;;;;;;;26.31;86.43;101222.38;5020285;28;20542;-68
2023/09/11 09:32:58;;;;;;;28.60;16.70;;;;;;;26.37;86.47;101224.88;5022326;28;20103;-68
2023/09/11 09:35:30;;;;;;;19.73;15.93;;;;;;;26.37;85.78;101224.09;5014498;28;20056;-68
2023/09/11 09:37:57;;;;;;;19.80;14.32;;;;;;;26.62;87.23;101221.06;5022450;28;20055;-68
2023/09/11 09:40:38;;;;;;;22.75;15.02;;;;;;;26.87;85.46;101220.63;5011236;28;20567;-68
2023/09/11 09:43:06;;;;;;;19.70;14.95;;;;;;;27.00;85.67;101209.50;5016461;28;20713;-67
2023/09/11 09:45:35;;;;;;;22.88;15.55;;;;;;;27.17;83.36;101214.88;5017737;28;20049;-68
2023/09/11 09:48:09;;;;;;;23.38;16.95;;;;;;;26.92;82.41;101220.72;5023659;28;20053;-68
2023/09/11 09:50:48;;;;;;;23.52;15.35;;;;;;;27.03;83.15;101217.13;5016990;28;20052;-68
2023/09/11 09:53:32;;;;;;;22.45;15.40;;;;;;;26.92;81.47;101209.13;5023274;28;20045;-68
2023/09/11 09:56:03;;;;;;;22.08;15.15;;;;;;;27.08;82.00;101208.28;5011523;28;20057;-68
2023/09/11 09:58:33;;;;;;;17.48;14.73;;;;;;;27.36;81.91;101209.22;5017043;28;20045;-67
2023/09/11 10:01:13;;;;;;;20.73;14.25;;;;;;;27.63;80.98;101214.69;5021445;28;20232;-68
2023/09/11 10:03:44;;;;;;;22.15;14.32;;;;;;;27.73;76.71;101204.03;5013341;28;20041;-68
2023/09/11 10:06:19;;;;;;;20.73;13.18;;;;;;;27.65;74.84;101195.59;5023276;28;20099;-67
2023/09/11 10:08:47;;;;;;;20.27;13.32;;;;;;;27.80;75.84;101204.66;5011967;28;20148;-68
2023/09/11 10:11:31;;;;;;;26.45;12.80;;;;;;;28.18;76.21;101199.41;5017642;28;20057;-68
2023/09/11 10:14:00;;;;;;;19.70;13.35;;;;;;;28.28;74.28;101198.69;5014561;28;20056;-68
2023/09/11 10:16:28;;;;;;;16.45;13.50;;;;;;;28.34;71.01;101198.47;5019406;28;20098;-68
2023/09/11 10:18:56;;;;;;;19.38;13.98;;;;;;;28.38;72.62;101199.63;5015868;28;20433;-68
2023/09/11 10:21:23;;;;;;;22.88;13.95;;;;;;;28.40;71.40;101197.47;5021700;28;20056;-68
2023/09/11 10:23:52;;;;;;;20.27;12.88;;;;;;;28.55;71.38;101198.69;5022068;28;20033;-66
2023/09/11 10:26:26;;;;;;;13.93;10.98;;;;;;;28.78;69.06;101190.22;5016390;28;20045;-66
2023/09/11 10:28:57;;;;;;;15.82;9.32;;;;;;;29.02;67.30;101187.13;5023922;28;20157;-66
2023/09/11 10:31:25;;;;;;;14.48;10.73;;;;;;;29.25;64.95;101191.34;5016245;28;20080;-66
2023/09/11 10:33:57;;;;;;;17.27;10.18;;;;;;;29.63;68.94;101183.94;5019206;28;20051;-66
2023/09/11 10:36:30;;;;;;;16.95;10.68;;;;;;;29.84;66.96;101186.72;5012321;28;20052;-66
2023/09/11 10:39:00;;;;;;;15.68;9.70;;;;;;;29.73;63.60;101191.28;5019384;28;20103;-66
2023/09/11 10:41:27;;;;;;;12.82;9.10;;;;;;;29.88;63.14;101185.91;5022372;28;20045;-66
2023/09/11 10:43:54;;;;;;;14.02;8.55;;;;;;;29.83;59.69;101194.00;5015832;28;20053;-67
2023/09/11 10:46:21;;;;;;;11.48;9.20;;;;;;;29.95;59.14;101185.66;5020613;28;20136;-66
2023/09/11 10:48:50;;;;;;;12.57;8.67;;;;;;;29.99;59.35;101188.63;5011901;28;20053;-66
2023/09/11 10:51:18;;;;;;;14.93;10.00;;;;;;;29.74;57.91;101188.31;5022566;28;20348;-67
2023/09/11 10:53:48;;;;;;;11.82;7.43;;;;;;;29.88;58.08;101182.41;5016974;28;20076;-68
2023/09/11 10:56:16;;;;;;;10.48;7.13;;;;;;;29.83;57.32;101191.31;5022438;28;20049;-67
2023/09/11 10:58:43;;;;;;;15.02;8.57;;;;;;;29.99;57.01;101183.22;5022868;28;20049;-67
2023/09/11 11:01:13;;;;;;;10.77;7.28;;;;;;;30.09;57.32;101181.38;5010758;28;20056;-66
2023/09/11 11:03:40;;;;;;;13.15;7.43;;;;;;;30.18;56.48;101192.44;5019736;28;20109;-67
2023/09/11 11:06:12;;;;;;;13.60;7.05;;;;;;;30.23;56.61;101194.38;5015326;28;20160;-66
2023/09/11 11:08:41;;;;;;;13.88;7.22;;;;;;;30.29;54.47;101183.25;5022487;28;20045;-66